Climatologie pour Saint-Brevin les Pins
Jour • Résumé pour mars 31, 2017 Système :  Métrique    Anglais   Mixte
« - 1 jour
+ 1 jour »
Jour Semaine Mois Année Personnalisé
  Maximum : Minimum : Moyenne :
Température sous abri : 15.7 °C 11.3 °C 13.1 °C
Point de rosée : 12.1 °C 9.3 °C 10.8 °C
Humidité : 94 % 74 % 86 %
Vitesse du vent : 19.3 km/h 0.0 km/h 8.4 km/h
Rafale : 35.4 km/h - -
Direction :- - SW
Pression : 1016.5 hPa 1012.8 hPa -
Précipitations : 0.3 mm    
Historical Graphs
 
 
Tableau de données pour mars 31, 2017
Heure Tempé Pt rosée Pression Vent Vitesse Rafale Humidité Taux pluie (/hr) Soleil
00:00 13.7 °C 10.7 °C 1014.1 hPa SSE 4.8 km/h 12.9 km/h 82 % 0.0 mm 0 W/m2
00:10 13.7 °C 10.9 °C 1014.1 hPa South 6.4 km/h 14.5 km/h 83 % 0.0 mm 0 W/m2
00:15 13.7 °C 10.8 °C 1013.8 hPa SSE 6.4 km/h 12.9 km/h 83 % 0.0 mm 0 W/m2
00:20 13.7 °C 10.8 °C 1013.8 hPa South 11.3 km/h 12.9 km/h 83 % 0.0 mm 0 W/m2
00:25 13.7 °C 10.8 °C 1013.8 hPa SSW 6.4 km/h 12.9 km/h 83 % 0.0 mm 0 W/m2
00:30 13.7 °C 10.8 °C 1013.8 hPa South 3.2 km/h 12.9 km/h 83 % 0.0 mm 0 W/m2
00:35 13.6 °C 10.7 °C 1013.8 hPa South 4.8 km/h 9.7 km/h 83 % 0.0 mm 0 W/m2
00:40 13.5 °C 10.8 °C 1013.8 hPa SSE 6.4 km/h 9.7 km/h 84 % 0.0 mm 0 W/m2
00:45 13.4 °C 10.8 °C 1013.8 hPa SSE 4.8 km/h 9.7 km/h 84 % 0.0 mm 0 W/m2
00:50 13.3 °C 10.7 °C 1013.4 hPa SSE 8.0 km/h 14.5 km/h 84 % 0.0 mm 0 W/m2
00:55 13.3 °C 10.8 °C 1013.4 hPa SSE 4.8 km/h 14.5 km/h 85 % 0.0 mm 0 W/m2
01:00 13.2 °C 10.7 °C 1013.4 hPa South 6.4 km/h 11.3 km/h 85 % 0.0 mm 0 W/m2
01:05 13.1 °C 10.8 °C 1013.4 hPa South 8.0 km/h 12.9 km/h 86 % 0.0 mm 0 W/m2
01:10 13.0 °C 10.7 °C 1013.4 hPa SSE 6.4 km/h 14.5 km/h 86 % 0.0 mm 0 W/m2
01:15 12.9 °C 10.7 °C 1013.1 hPa SSE 11.3 km/h 16.1 km/h 86 % 0.0 mm 0 W/m2
01:20 12.9 °C 10.7 °C 1013.1 hPa SSE 8.0 km/h 16.1 km/h 86 % 0.0 mm 0 W/m2
01:30 12.9 °C 10.7 °C 1013.1 hPa South 6.4 km/h 16.1 km/h 86 % 0.0 mm 0 W/m2
01:35 12.8 °C 10.5 °C 1013.1 hPa SSE 1.6 km/h 16.1 km/h 86 % 0.0 mm 0 W/m2
01:40 12.8 °C 10.5 °C 1013.1 hPa SSE 4.8 km/h 12.9 km/h 86 % 0.0 mm 0 W/m2
01:45 12.8 °C 10.5 °C 1013.1 hPa SSE 9.7 km/h 12.9 km/h 86 % 0.0 mm 0 W/m2
01:50 12.9 °C 10.6 °C 1013.1 hPa South 3.2 km/h 11.3 km/h 86 % 0.0 mm 0 W/m2
01:55 13.0 °C 10.7 °C 1014.8 hPa West 14.5 km/h 33.8 km/h 86 % 0.0 mm 0 W/m2
02:00 13.4 °C 11.1 °C 1014.8 hPa West 14.5 km/h 33.8 km/h 86 % 0.0 mm 0 W/m2
02:10 13.0 °C 11.1 °C 1014.8 hPa WNW 8.0 km/h 24.1 km/h 88 % 0.0 mm 0 W/m2
02:15 12.9 °C 11.1 °C 1014.8 hPa WSW 9.7 km/h 19.3 km/h 89 % 0.0 mm 0 W/m2
02:20 12.9 °C 11.2 °C 1014.8 hPa West 9.7 km/h 17.7 km/h 89 % 0.0 mm 0 W/m2
02:25 12.9 °C 11.2 °C 1014.8 hPa WSW 11.3 km/h 19.3 km/h 89 % 0.0 mm 0 W/m2
02:30 12.9 °C 11.1 °C 1015.1 hPa SW 6.4 km/h 19.3 km/h 89 % 0.0 mm 0 W/m2
02:35 12.8 °C 11.2 °C 1015.1 hPa West 4.8 km/h 14.5 km/h 90 % 0.0 mm 0 W/m2
02:40 12.7 °C 11.1 °C 1014.8 hPa West 3.2 km/h 17.7 km/h 90 % 0.0 mm 0 W/m2
02:45 12.5 °C 11.1 °C 1014.8 hPa Calm   17.7 km/h 91 % 0.0 mm 0 W/m2
02:50 12.5 °C 11.1 °C 1014.8 hPa West 6.4 km/h 12.9 km/h 91 % 0.0 mm 0 W/m2
02:55 12.4 °C 11.0 °C 1014.8 hPa WNW 6.4 km/h 12.9 km/h 91 % 0.0 mm 0 W/m2
03:00 12.4 °C 11.0 °C 1014.4 hPa West 3.2 km/h 12.9 km/h 91 % 0.0 mm 0 W/m2
03:05 12.3 °C 10.9 °C 1014.4 hPa West 9.7 km/h 11.3 km/h 91 % 0.0 mm 0 W/m2
03:10 12.3 °C 10.9 °C 1014.4 hPa West 6.4 km/h 12.9 km/h 91 % 0.0 mm 0 W/m2
03:15 12.2 °C 10.7 °C 1014.1 hPa WNW 6.4 km/h 12.9 km/h 91 % 0.0 mm 0 W/m2
03:20 12.1 °C 10.9 °C 1014.1 hPa NW 4.8 km/h 11.3 km/h 92 % 0.0 mm 0 W/m2
03:25 12.2 °C 10.9 °C 1014.1 hPa WNW 4.8 km/h 11.3 km/h 92 % 0.0 mm 0 W/m2
03:30 12.2 °C 11.0 °C 1013.8 hPa WNW 8.0 km/h 12.9 km/h 92 % 0.0 mm 0 W/m2
03:35 12.3 °C 10.9 °C 1013.8 hPa West 6.4 km/h 14.5 km/h 91 % 0.0 mm 0 W/m2
03:40 12.4 °C 10.8 °C 1013.8 hPa Calm   14.5 km/h 90 % 0.0 mm 0 W/m2
03:45 12.4 °C 10.8 °C 1014.1 hPa Calm   8.0 km/h 90 % 0.0 mm 0 W/m2
03:50 12.3 °C 10.7 °C 1013.8 hPa WNW 3.2 km/h 8.0 km/h 90 % 0.0 mm 0 W/m2
03:55 12.2 °C 10.6 °C 1013.8 hPa West 1.6 km/h 6.4 km/h 90 % 0.0 mm 0 W/m2
04:00 11.9 °C 10.4 °C 1013.8 hPa West 1.6 km/h 6.4 km/h 90 % 0.0 mm 0 W/m2
04:05 11.9 °C 10.5 °C 1013.4 hPa Calm   3.2 km/h 91 % 0.0 mm 0 W/m2
04:10 11.8 °C 10.4 °C 1013.4 hPa Calm   3.2 km/h 91 % 0.0 mm 0 W/m2
04:15 11.8 °C 10.4 °C 1013.4 hPa Calm   3.2 km/h 91 % 0.0 mm 0 W/m2
04:20 11.8 °C 10.4 °C 1013.4 hPa Calm   1.6 km/h 91 % 0.0 mm 0 W/m2
04:25 11.8 °C 10.6 °C 1013.4 hPa West 3.2 km/h 3.2 km/h 92 % 0.0 mm 0 W/m2
04:30 11.9 °C 10.6 °C 1013.8 hPa WSW 4.8 km/h 6.4 km/h 92 % 0.0 mm 0 W/m2
04:35 11.9 °C 10.7 °C 1013.8 hPa SW 1.6 km/h 6.4 km/h 92 % 0.0 mm 0 W/m2
04:40 12.2 °C 10.9 °C 1013.8 hPa Calm   9.7 km/h 92 % 0.0 mm 0 W/m2
04:45 12.3 °C 10.9 °C 1013.4 hPa WSW 4.8 km/h 9.7 km/h 91 % 0.0 mm 0 W/m2
04:50 12.3 °C 10.9 °C 1013.8 hPa SW 3.2 km/h 11.3 km/h 91 % 0.0 mm 0 W/m2
04:55 12.4 °C 11.0 °C 1013.8 hPa WSW 4.8 km/h 12.9 km/h 91 % 0.0 mm 0 W/m2
05:00 12.5 °C 11.1 °C 1013.8 hPa WSW 11.3 km/h 14.5 km/h 91 % 0.0 mm 0 W/m2
05:05 12.6 °C 11.0 °C 1013.8 hPa WNW 6.4 km/h 16.1 km/h 90 % 0.0 mm 0 W/m2
05:10 12.5 °C 10.9 °C 1013.8 hPa West 8.0 km/h 16.1 km/h 90 % 0.0 mm 0 W/m2
05:20 12.4 °C 11.0 °C 1013.4 hPa WSW 6.4 km/h 9.7 km/h 91 % 0.0 mm 0 W/m2
05:25 12.3 °C 10.9 °C 1014.1 hPa WSW 6.4 km/h 11.3 km/h 91 % 0.0 mm 0 W/m2
05:30 12.3 °C 11.0 °C 1014.1 hPa SSW 6.4 km/h 11.3 km/h 92 % 0.0 mm 0 W/m2
05:40 12.1 °C 11.0 °C 1013.8 hPa WSW 11.3 km/h 11.3 km/h 93 % 0.0 mm 0 W/m2
05:45 12.1 °C 11.0 °C 1013.8 hPa WSW 3.2 km/h 11.3 km/h 93 % 0.0 mm 0 W/m2
05:50 12.0 °C 10.9 °C 1013.8 hPa WSW 4.8 km/h 11.3 km/h 93 % 0.0 mm 0 W/m2
06:00 11.9 °C 10.8 °C 1013.8 hPa SW 3.2 km/h 11.3 km/h 93 % 0.3 mm 0 W/m2
06:05 12.0 °C 11.1 °C 1013.8 hPa SW 6.4 km/h 11.3 km/h 94 % 0.3 mm 0 W/m2
06:10 12.0 °C 11.1 °C 1013.8 hPa WSW 1.6 km/h 11.3 km/h 94 % 0.3 mm 0 W/m2
06:15 12.1 °C 11.1 °C 1014.1 hPa SSW 8.0 km/h 12.9 km/h 94 % 0.3 mm 0 W/m2
06:20 12.1 °C 11.0 °C 1013.8 hPa WSW 8.0 km/h 14.5 km/h 93 % 0.3 mm 0 W/m2
06:25 12.0 °C 10.9 °C 1013.8 hPa WSW 12.9 km/h 14.5 km/h 93 % 0.3 mm 0 W/m2
06:30 11.9 °C 10.8 °C 1013.8 hPa WSW 3.2 km/h 17.7 km/h 93 % 0.3 mm 0 W/m2
06:40 11.8 °C 10.7 °C 1014.1 hPa SW 6.4 km/h 12.9 km/h 93 % 0.3 mm 0 W/m2
06:45 11.8 °C 10.7 °C 1014.1 hPa SSW 11.3 km/h 11.3 km/h 93 % 0.3 mm 0 W/m2
06:50 11.8 °C 10.8 °C 1014.1 hPa SSW 8.0 km/h 12.9 km/h 94 % 0.3 mm 0 W/m2
06:55 11.8 °C 10.8 °C 1014.1 hPa WSW 6.4 km/h 12.9 km/h 94 % 0.0 mm 0 W/m2
07:00 11.7 °C 10.8 °C 1014.1 hPa SW 6.4 km/h 11.3 km/h 94 % 0.0 mm 0 W/m2
07:05 11.7 °C 10.7 °C 1014.1 hPa WSW 1.6 km/h 17.7 km/h 94 % 0.0 mm 0 W/m2
07:10 11.6 °C 10.7 °C 1014.4 hPa SW 11.3 km/h 17.7 km/h 94 % 0.0 mm 0 W/m2
07:15 11.6 °C 10.7 °C 1014.4 hPa West 12.9 km/h 17.7 km/h 94 % 0.0 mm 0 W/m2
07:20 11.6 °C 10.6 °C 1014.4 hPa SW 8.0 km/h 22.5 km/h 94 % 0.0 mm 0 W/m2
07:25 11.6 °C 10.7 °C 1014.4 hPa West 4.8 km/h 22.5 km/h 94 % 0.0 mm 0 W/m2
07:30 11.7 °C 10.6 °C 1014.4 hPa WNW 9.7 km/h 16.1 km/h 93 % 0.0 mm 0 W/m2
07:35 11.7 °C 10.6 °C 1014.4 hPa West 11.3 km/h 17.7 km/h 93 % 0.0 mm 0 W/m2
07:40 11.7 °C 10.6 °C 1014.8 hPa West 8.0 km/h 17.7 km/h 93 % 0.0 mm 0 W/m2
07:45 11.7 °C 10.6 °C 1014.8 hPa WSW 6.4 km/h 16.1 km/h 93 % 0.0 mm 0 W/m2
07:50 11.7 °C 10.6 °C 1014.8 hPa West 9.7 km/h 12.9 km/h 93 % 0.0 mm 0 W/m2
07:55 11.7 °C 10.6 °C 1014.8 hPa WSW 9.7 km/h 12.9 km/h 93 % 0.0 mm 0 W/m2
08:00 11.7 °C 10.6 °C 1014.8 hPa WSW 6.4 km/h 12.9 km/h 93 % 0.0 mm 0 W/m2
08:05 11.7 °C 10.6 °C 1014.8 hPa WSW 6.4 km/h 14.5 km/h 93 % 0.0 mm 9 W/m2
08:10 11.8 °C 10.7 °C 1014.8 hPa SW 8.0 km/h 14.5 km/h 93 % 0.0 mm 9 W/m2
08:15 11.8 °C 10.7 °C 1014.8 hPa SW 3.2 km/h 11.3 km/h 93 % 0.0 mm 14 W/m2
08:20 11.8 °C 10.7 °C 1014.8 hPa Calm   11.3 km/h 93 % 0.0 mm 23 W/m2
08:25 11.8 °C 10.7 °C 1014.8 hPa WSW 6.4 km/h 14.5 km/h 93 % 0.0 mm 28 W/m2
08:30 11.8 °C 10.7 °C 1015.1 hPa Calm   14.5 km/h 93 % 0.0 mm 26 W/m2
08:35 11.9 °C 10.8 °C 1015.1 hPa SSW 4.8 km/h 12.9 km/h 93 % 0.0 mm 21 W/m2
08:40 11.9 °C 10.8 °C 1015.1 hPa SW 6.4 km/h 12.9 km/h 93 % 0.0 mm 26 W/m2
08:45 11.9 °C 10.8 °C 1015.1 hPa SW 6.4 km/h 12.9 km/h 93 % 0.0 mm 19 W/m2
08:50 11.9 °C 10.8 °C 1015.1 hPa SW 3.2 km/h 14.5 km/h 93 % 0.0 mm 21 W/m2
08:55 11.9 °C 10.8 °C 1015.1 hPa WSW 6.4 km/h 14.5 km/h 93 % 0.0 mm 28 W/m2
09:00 11.9 °C 10.8 °C 1015.1 hPa SW 8.0 km/h 12.9 km/h 93 % 0.0 mm 21 W/m2
09:05 12.0 °C 10.9 °C 1015.1 hPa SW 6.4 km/h 16.1 km/h 93 % 0.0 mm 40 W/m2
09:10 12.1 °C 11.0 °C 1015.1 hPa SW 6.4 km/h 16.1 km/h 93 % 0.0 mm 56 W/m2
09:15 12.1 °C 10.8 °C 1015.5 hPa WSW 11.3 km/h 16.1 km/h 92 % 0.0 mm 118 W/m2
09:20 12.0 °C 10.7 °C 1015.5 hPa SW 9.7 km/h 17.7 km/h 92 % 0.0 mm 207 W/m2
09:25 12.2 °C 11.1 °C 1015.5 hPa WSW 11.3 km/h 17.7 km/h 93 % 0.0 mm 128 W/m2
09:30 12.3 °C 11.0 °C 1015.5 hPa WSW 11.3 km/h 16.1 km/h 92 % 0.0 mm 237 W/m2
09:35 12.4 °C 11.2 °C 1015.5 hPa SW 14.5 km/h 16.1 km/h 92 % 0.0 mm 243 W/m2
09:40 12.5 °C 11.1 °C 1015.5 hPa West 8.0 km/h 16.1 km/h 91 % 0.0 mm 264 W/m2
09:50 12.7 °C 11.2 °C 1015.5 hPa WSW 6.4 km/h 17.7 km/h 91 % 0.0 mm 220 W/m2
09:55 12.7 °C 11.1 °C 1015.5 hPa WSW 8.0 km/h 17.7 km/h 90 % 0.0 mm 223 W/m2
10:00 12.9 °C 11.3 °C 1015.5 hPa West 6.4 km/h 14.5 km/h 90 % 0.0 mm 353 W/m2
10:05 12.9 °C 11.3 °C 1015.5 hPa WSW 14.5 km/h 19.3 km/h 90 % 0.0 mm 258 W/m2
10:10 12.8 °C 11.2 °C 1015.8 hPa SW 8.0 km/h 19.3 km/h 90 % 0.0 mm 253 W/m2
10:15 12.8 °C 11.1 °C 1015.8 hPa SW 16.1 km/h 19.3 km/h 89 % 0.0 mm 155 W/m2
10:20 12.7 °C 10.9 °C 1015.8 hPa West 4.8 km/h 20.9 km/h 89 % 0.0 mm 176 W/m2
10:25 12.7 °C 11.0 °C 1015.8 hPa WSW 1.6 km/h 20.9 km/h 89 % 0.0 mm 223 W/m2
10:30 12.9 °C 11.3 °C 1015.8 hPa SW 4.8 km/h 12.9 km/h 90 % 0.0 mm 241 W/m2
10:35 13.0 °C 11.2 °C 1015.8 hPa WSW 3.2 km/h 12.9 km/h 89 % 0.0 mm 323 W/m2
10:40 13.1 °C 11.2 °C 1016.1 hPa SW 4.8 km/h 12.9 km/h 88 % 0.0 mm 329 W/m2
10:45 13.6 °C 11.8 °C 1016.1 hPa WSW 3.2 km/h 12.9 km/h 89 % 0.0 mm 459 W/m2
10:50 13.7 °C 11.5 °C 1016.1 hPa WSW 4.8 km/h 12.9 km/h 87 % 0.0 mm 480 W/m2
10:55 13.8 °C 11.7 °C 1016.1 hPa WSW 9.7 km/h 14.5 km/h 87 % 0.0 mm 487 W/m2
11:00 13.8 °C 11.3 °C 1016.1 hPa WSW 1.6 km/h 14.5 km/h 85 % 0.0 mm 497 W/m2
11:05 14.0 °C 11.5 °C 1016.1 hPa WSW 3.2 km/h 12.9 km/h 85 % 0.0 mm 561 W/m2
11:10 14.2 °C 11.7 °C 1016.1 hPa West 12.9 km/h 16.1 km/h 85 % 0.0 mm 323 W/m2
11:15 13.8 °C 11.5 °C 1016.5 hPa SSW 11.3 km/h 16.1 km/h 86 % 0.0 mm 364 W/m2
11:25 13.8 °C 11.7 °C 1016.1 hPa WNW 9.7 km/h 12.9 km/h 87 % 0.0 mm 299 W/m2
11:30 13.8 °C 11.5 °C 1016.1 hPa WSW 9.7 km/h 16.1 km/h 86 % 0.0 mm 237 W/m2
11:35 13.6 °C 11.3 °C 1016.5 hPa WNW 6.4 km/h 16.1 km/h 86 % 0.0 mm 229 W/m2
11:40 13.8 °C 11.7 °C 1016.5 hPa SSW 3.2 km/h 12.9 km/h 87 % 0.0 mm 612 W/m2
11:45 14.4 °C 12.1 °C 1016.5 hPa SSW 9.7 km/h 16.1 km/h 86 % 0.0 mm 615 W/m2
11:50 14.2 °C 11.7 °C 1016.1 hPa SW 4.8 km/h 20.9 km/h 85 % 0.0 mm 628 W/m2
11:55 14.3 °C 11.7 °C 1016.1 hPa West 11.3 km/h 20.9 km/h 84 % 0.0 mm 628 W/m2
12:00 14.3 °C 11.6 °C 1016.1 hPa SSW 6.4 km/h 19.3 km/h 84 % 0.0 mm 645 W/m2
12:05 14.6 °C 11.8 °C 1016.1 hPa South 14.5 km/h 19.3 km/h 83 % 0.0 mm 578 W/m2
12:10 14.7 °C 11.9 °C 1016.1 hPa SW 8.0 km/h 20.9 km/h 83 % 0.0 mm 700 W/m2
12:15 14.5 °C 11.3 °C 1016.1 hPa South 8.0 km/h 20.9 km/h 81 % 0.0 mm 431 W/m2
12:20 14.3 °C 11.2 °C 1016.1 hPa SW 11.3 km/h 20.9 km/h 82 % 0.0 mm 357 W/m2
12:25 14.4 °C 11.8 °C 1016.1 hPa West 6.4 km/h 22.5 km/h 84 % 0.0 mm 485 W/m2
12:30 14.2 °C 11.2 °C 1016.1 hPa WSW 9.7 km/h 22.5 km/h 82 % 0.0 mm 341 W/m2
12:35 14.2 °C 11.3 °C 1016.1 hPa West 6.4 km/h 17.7 km/h 83 % 0.0 mm 376 W/m2
12:40 14.2 °C 11.4 °C 1016.1 hPa SW 11.3 km/h 17.7 km/h 83 % 0.0 mm 403 W/m2
12:45 14.1 °C 11.3 °C 1016.1 hPa SW 11.3 km/h 17.7 km/h 83 % 0.0 mm 343 W/m2
12:50 14.2 °C 11.5 °C 1016.1 hPa South 9.7 km/h 17.7 km/h 84 % 0.0 mm 320 W/m2
12:55 14.2 °C 11.4 °C 1016.1 hPa SSW 11.3 km/h 19.3 km/h 83 % 0.0 mm 350 W/m2
13:00 14.3 °C 11.5 °C 1016.1 hPa SSE 6.4 km/h 20.9 km/h 83 % 0.0 mm 380 W/m2
13:05 14.3 °C 11.2 °C 1016.1 hPa SW 11.3 km/h 20.9 km/h 82 % 0.0 mm 367 W/m2
13:10 14.3 °C 11.4 °C 1016.1 hPa WSW 4.8 km/h 19.3 km/h 83 % 0.0 mm 441 W/m2
13:15 14.3 °C 11.3 °C 1015.8 hPa WSW 6.4 km/h 16.1 km/h 82 % 0.0 mm 487 W/m2
13:20 14.8 °C 12.0 °C 1015.8 hPa SW 6.4 km/h 16.1 km/h 83 % 0.0 mm 615 W/m2
13:25 14.6 °C 11.3 °C 1015.8 hPa WSW 17.7 km/h 20.9 km/h 81 % 0.0 mm 478 W/m2
13:30 14.3 °C 11.3 °C 1015.8 hPa SW 11.3 km/h 20.9 km/h 82 % 0.0 mm 636 W/m2
13:35 14.6 °C 11.8 °C 1015.8 hPa WSW 11.3 km/h 19.3 km/h 83 % 0.0 mm 647 W/m2
13:40 14.6 °C 11.7 °C 1015.8 hPa SSW 11.3 km/h 24.1 km/h 83 % 0.0 mm 846 W/m2
13:45 14.7 °C 11.5 °C 1015.8 hPa SW 11.3 km/h 24.1 km/h 81 % 0.0 mm 768 W/m2
13:50 14.8 °C 11.9 °C 1015.8 hPa SW 14.5 km/h 17.7 km/h 83 % 0.0 mm 777 W/m2
13:55 14.8 °C 11.4 °C 1015.8 hPa WSW 4.8 km/h 25.7 km/h 80 % 0.0 mm 791 W/m2
14:00 14.8 °C 11.4 °C 1015.8 hPa SW 16.1 km/h 25.7 km/h 80 % 0.0 mm 798 W/m2
14:05 14.9 °C 11.5 °C 1015.8 hPa West 16.1 km/h 24.1 km/h 80 % 0.0 mm 768 W/m2
14:10 15.1 °C 11.6 °C 1015.8 hPa SSW 11.3 km/h 24.1 km/h 80 % 0.0 mm 775 W/m2
14:15 15.2 °C 11.4 °C 1015.8 hPa SW 11.3 km/h 25.7 km/h 78 % 0.0 mm 780 W/m2
14:20 15.3 °C 11.9 °C 1015.8 hPa WNW 11.3 km/h 25.7 km/h 80 % 0.0 mm 729 W/m2
14:25 15.3 °C 11.7 °C 1015.8 hPa West 16.1 km/h 24.1 km/h 79 % 0.0 mm 838 W/m2
14:30 15.7 °C 11.7 °C 1015.8 hPa SW 11.3 km/h 24.1 km/h 77 % 0.0 mm 729 W/m2
14:35 15.2 °C 11.4 °C 1015.8 hPa WSW 17.7 km/h 24.1 km/h 78 % 0.0 mm 677 W/m2
14:40 15.2 °C 11.6 °C 1015.8 hPa West 12.9 km/h 22.5 km/h 79 % 0.0 mm 812 W/m2
14:45 15.1 °C 11.1 °C 1015.8 hPa WSW 17.7 km/h 25.7 km/h 77 % 0.0 mm 784 W/m2
14:50 15.1 °C 11.6 °C 1015.8 hPa WSW 16.1 km/h 29.0 km/h 80 % 0.0 mm 751 W/m2
14:55 15.1 °C 10.9 °C 1015.8 hPa SSW 8.0 km/h 29.0 km/h 76 % 0.0 mm 710 W/m2
15:00 15.1 °C 11.2 °C 1015.8 hPa WSW 8.0 km/h 27.4 km/h 78 % 0.0 mm 742 W/m2
15:05 15.3 °C 11.5 °C 1015.8 hPa WSW 8.0 km/h 35.4 km/h 78 % 0.0 mm 740 W/m2
15:10 15.4 °C 11.4 °C 1015.8 hPa SW 17.7 km/h 35.4 km/h 77 % 0.0 mm 749 W/m2
15:15 15.2 °C 11.2 °C 1015.5 hPa WSW 14.5 km/h 25.7 km/h 77 % 0.0 mm 835 W/m2
15:20 15.1 °C 11.1 °C 1015.5 hPa WSW 14.5 km/h 27.4 km/h 77 % 0.0 mm 404 W/m2
15:25 14.4 °C 10.8 °C 1015.5 hPa South 12.9 km/h 27.4 km/h 79 % 0.0 mm 381 W/m2
15:30 15.3 °C 11.5 °C 1015.5 hPa South 9.7 km/h 25.7 km/h 78 % 0.0 mm 791 W/m2
15:35 15.6 °C 11.2 °C 1015.5 hPa WSW 14.5 km/h 24.1 km/h 75 % 0.0 mm 731 W/m2
15:40 15.3 °C 10.7 °C 1015.5 hPa SSW 12.9 km/h 24.1 km/h 74 % 0.0 mm 257 W/m2
15:45 14.7 °C 10.7 °C 1015.5 hPa WSW 11.3 km/h 22.5 km/h 77 % 0.0 mm 399 W/m2
15:50 15.1 °C 10.9 °C 1015.5 hPa SSW 12.9 km/h 30.6 km/h 76 % 0.0 mm 399 W/m2
15:55 15.3 °C 10.7 °C 1015.1 hPa SSW 17.7 km/h 30.6 km/h 74 % 0.0 mm 663 W/m2
16:00 15.4 °C 11.2 °C 1015.1 hPa SW 12.9 km/h 27.4 km/h 76 % 0.0 mm 657 W/m2
16:05 15.5 °C 11.5 °C 1015.1 hPa West 4.8 km/h 24.1 km/h 77 % 0.0 mm 656 W/m2
16:10 15.4 °C 11.0 °C 1015.1 hPa WSW 19.3 km/h 27.4 km/h 75 % 0.0 mm 668 W/m2
16:15 15.3 °C 10.7 °C 1015.1 hPa SSW 12.9 km/h 29.0 km/h 74 % 0.0 mm 729 W/m2
16:20 15.3 °C 11.3 °C 1015.1 hPa West 14.5 km/h 29.0 km/h 77 % 0.0 mm 276 W/m2
16:25 14.8 °C 10.6 °C 1015.1 hPa WSW 11.3 km/h 29.0 km/h 76 % 0.0 mm 304 W/m2
16:30 14.8 °C 11.0 °C 1014.8 hPa SSW 9.7 km/h 25.7 km/h 78 % 0.0 mm 520 W/m2
16:35 15.3 °C 11.3 °C 1014.8 hPa West 8.0 km/h 24.1 km/h 77 % 0.0 mm 617 W/m2
16:40 15.3 °C 11.3 °C 1014.8 hPa SSW 11.3 km/h 24.1 km/h 77 % 0.0 mm 587 W/m2
16:45 15.4 °C 11.2 °C 1014.8 hPa West 9.7 km/h 25.7 km/h 76 % 0.0 mm 589 W/m2
16:50 15.3 °C 11.1 °C 1014.8 hPa SW 17.7 km/h 25.7 km/h 76 % 0.0 mm 575 W/m2
16:55 15.4 °C 11.4 °C 1014.8 hPa WSW 9.7 km/h 24.1 km/h 77 % 0.0 mm 550 W/m2
17:00 15.4 °C 11.4 °C 1014.4 hPa SW 9.7 km/h 24.1 km/h 77 % 0.0 mm 536 W/m2
17:05 15.1 °C 11.2 °C 1014.8 hPa WNW 12.9 km/h 29.0 km/h 78 % 0.0 mm 563 W/m2
17:10 15.2 °C 11.0 °C 1014.4 hPa SSW 17.7 km/h 29.0 km/h 76 % 0.0 mm 526 W/m2
17:15 14.9 °C 10.5 °C 1014.4 hPa SW 11.3 km/h 29.0 km/h 75 % 0.0 mm 503 W/m2
17:20 14.8 °C 10.8 °C 1014.4 hPa SSW 8.0 km/h 29.0 km/h 77 % 0.0 mm 445 W/m2
17:25 14.8 °C 11.0 °C 1014.4 hPa SW 16.1 km/h 29.0 km/h 78 % 0.0 mm 299 W/m2
17:30 14.7 °C 11.1 °C 1014.4 hPa SSW 6.4 km/h 29.0 km/h 79 % 0.0 mm 322 W/m2
17:35 14.3 °C 10.7 °C 1014.4 hPa SW 16.1 km/h 29.0 km/h 79 % 0.0 mm 302 W/m2
17:40 14.4 °C 11.0 °C 1014.1 hPa WSW 6.4 km/h 32.2 km/h 80 % 0.0 mm 265 W/m2
17:45 14.6 °C 10.8 °C 1014.1 hPa SSW 16.1 km/h 32.2 km/h 78 % 0.0 mm 204 W/m2
17:50 14.7 °C 11.1 °C 1014.1 hPa SW 11.3 km/h 30.6 km/h 79 % 0.0 mm 236 W/m2
17:55 14.6 °C 10.6 °C 1014.1 hPa SSW 9.7 km/h 30.6 km/h 77 % 0.0 mm 98 W/m2
18:00 14.2 °C 10.4 °C 1014.1 hPa SSW 12.9 km/h 30.6 km/h 78 % 0.0 mm 100 W/m2
18:05 13.9 °C 10.4 °C 1014.1 hPa SSW 6.4 km/h 30.6 km/h 79 % 0.0 mm 169 W/m2
18:10 14.2 °C 10.8 °C 1014.1 hPa SSW 6.4 km/h 20.9 km/h 80 % 0.0 mm 197 W/m2
18:15 14.2 °C 10.8 °C 1013.8 hPa SSW 12.9 km/h 29.0 km/h 80 % 0.0 mm 330 W/m2
18:20 14.1 °C 10.5 °C 1013.8 hPa SSW 12.9 km/h 29.0 km/h 79 % 0.0 mm 139 W/m2
18:25 13.9 °C 10.7 °C 1013.8 hPa South 8.0 km/h 29.0 km/h 81 % 0.0 mm 250 W/m2
18:30 13.9 °C 10.5 °C 1013.8 hPa South 9.7 km/h 29.0 km/h 80 % 0.0 mm 139 W/m2
18:35 13.8 °C 10.6 °C 1013.8 hPa SW 4.8 km/h 27.4 km/h 81 % 0.0 mm 144 W/m2
18:40 13.7 °C 10.5 °C 1013.8 hPa SSW 9.7 km/h 27.4 km/h 81 % 0.0 mm 123 W/m2
18:45 13.5 °C 10.3 °C 1013.8 hPa South 19.3 km/h 24.1 km/h 81 % 0.0 mm 123 W/m2
18:50 13.5 °C 10.3 °C 1013.4 hPa South 12.9 km/h 29.0 km/h 81 % 0.0 mm 121 W/m2
18:55 13.5 °C 10.1 °C 1013.4 hPa South 4.8 km/h 30.6 km/h 80 % 0.0 mm 107 W/m2
19:00 13.5 °C 10.1 °C 1013.4 hPa SSW 6.4 km/h 30.6 km/h 80 % 0.0 mm 100 W/m2
19:05 13.6 °C 10.4 °C 1013.4 hPa SSW 6.4 km/h 24.1 km/h 81 % 0.0 mm 120 W/m2
19:10 13.6 °C 10.2 °C 1013.1 hPa SW 17.7 km/h 29.0 km/h 80 % 0.0 mm 127 W/m2
19:15 13.7 °C 10.5 °C 1013.1 hPa South 14.5 km/h 29.0 km/h 81 % 0.0 mm 118 W/m2
19:20 13.6 °C 10.4 °C 1013.1 hPa SSW 14.5 km/h 29.0 km/h 81 % 0.0 mm 102 W/m2
19:25 13.5 °C 10.5 °C 1013.1 hPa SW 11.3 km/h 32.2 km/h 82 % 0.0 mm 72 W/m2
19:30 13.4 °C 10.4 °C 1013.1 hPa South 9.7 km/h 33.8 km/h 82 % 0.0 mm 83 W/m2
19:35 13.3 °C 10.5 °C 1013.1 hPa South 8.0 km/h 33.8 km/h 83 % 0.0 mm 56 W/m2
19:40 13.3 °C 10.6 °C 1013.1 hPa SW 12.9 km/h 30.6 km/h 84 % 0.0 mm 84 W/m2
19:45 13.2 °C 10.6 °C 1012.8 hPa SSW 11.3 km/h 27.4 km/h 84 % 0.0 mm 33 W/m2
19:50 13.2 °C 10.5 °C 1013.1 hPa SW 6.4 km/h 27.4 km/h 84 % 0.0 mm 14 W/m2
19:55 13.0 °C 10.4 °C 1013.1 hPa SW 19.3 km/h 25.7 km/h 84 % 0.0 mm 12 W/m2
20:00 12.9 °C 10.2 °C 1013.1 hPa SSW 8.0 km/h 29.0 km/h 84 % 0.0 mm 5 W/m2
20:05 12.8 °C 10.4 °C 1013.1 hPa SSW 6.4 km/h 30.6 km/h 85 % 0.0 mm 7 W/m2
20:10 12.7 °C 9.9 °C 1013.1 hPa SSW 8.0 km/h 32.2 km/h 83 % 0.0 mm 7 W/m2
20:15 12.6 °C 9.8 °C 1013.1 hPa WSW 9.7 km/h 32.2 km/h 83 % 0.0 mm 7 W/m2
20:20 12.4 °C 9.8 °C 1013.1 hPa SW 9.7 km/h 30.6 km/h 84 % 0.0 mm 7 W/m2
20:25 12.3 °C 9.7 °C 1013.1 hPa West 9.7 km/h 25.7 km/h 84 % 0.0 mm 0 W/m2
20:30 12.2 °C 9.5 °C 1013.1 hPa West 17.7 km/h 25.7 km/h 84 % 0.0 mm 0 W/m2
20:35 12.1 °C 9.3 °C 1013.1 hPa SW 14.5 km/h 25.7 km/h 83 % 0.0 mm 0 W/m2
20:40 12.1 °C 9.3 °C 1013.1 hPa WSW 4.8 km/h 25.7 km/h 83 % 0.0 mm 0 W/m2
20:45 12.0 °C 9.4 °C 1013.1 hPa SW 11.3 km/h 20.9 km/h 84 % 0.0 mm 0 W/m2
20:50 11.9 °C 9.5 °C 1013.1 hPa West 8.0 km/h 19.3 km/h 85 % 0.0 mm 0 W/m2
20:55 11.9 °C 9.4 °C 1013.1 hPa WNW 4.8 km/h 20.9 km/h 85 % 0.0 mm 0 W/m2
21:00 11.8 °C 9.5 °C 1013.1 hPa SW 8.0 km/h 20.9 km/h 86 % 0.0 mm 0 W/m2
21:05 11.7 °C 9.5 °C 1013.1 hPa SW 11.3 km/h 19.3 km/h 86 % 0.0 mm 0 W/m2
21:10 11.7 °C 9.4 °C 1013.1 hPa WNW 3.2 km/h 22.5 km/h 86 % 0.0 mm 0 W/m2
21:15 11.7 °C 9.4 °C 1013.1 hPa SW 9.7 km/h 22.5 km/h 86 % 0.0 mm 0 W/m2
21:20 11.7 °C 9.5 °C 1013.1 hPa WSW 8.0 km/h 20.9 km/h 86 % 0.0 mm 0 W/m2
21:25 11.7 °C 9.5 °C 1013.1 hPa South 6.4 km/h 17.7 km/h 86 % 0.0 mm 0 W/m2
21:30 11.7 °C 9.5 °C 1013.1 hPa West 6.4 km/h 20.9 km/h 86 % 0.0 mm 0 W/m2
21:35 11.7 °C 9.5 °C 1013.1 hPa West 11.3 km/h 22.5 km/h 86 % 0.0 mm 0 W/m2
21:40 11.7 °C 9.4 °C 1013.1 hPa SW 9.7 km/h 22.5 km/h 86 % 0.0 mm 0 W/m2
21:45 11.6 °C 9.5 °C 1013.1 hPa South 4.8 km/h 20.9 km/h 87 % 0.0 mm 0 W/m2
21:50 11.7 °C 9.6 °C 1013.1 hPa SW 3.2 km/h 20.9 km/h 87 % 0.0 mm 0 W/m2
21:55 11.6 °C 9.5 °C 1013.1 hPa West 6.4 km/h 22.5 km/h 87 % 0.0 mm 0 W/m2
22:05 11.6 °C 9.7 °C 1013.1 hPa South 6.4 km/h 19.3 km/h 88 % 0.0 mm 0 W/m2
22:10 11.7 °C 9.7 °C 1013.1 hPa WSW 6.4 km/h 20.9 km/h 88 % 0.0 mm 0 W/m2
22:15 11.7 °C 9.7 °C 1013.4 hPa WSW 6.4 km/h 20.9 km/h 88 % 0.0 mm 0 W/m2
22:20 11.7 °C 9.7 °C 1013.1 hPa SW 1.6 km/h 24.1 km/h 88 % 0.0 mm 0 W/m2
22:25 11.7 °C 9.7 °C 1013.1 hPa WSW 4.8 km/h 24.1 km/h 88 % 0.0 mm 0 W/m2
22:30 11.7 °C 9.7 °C 1013.1 hPa WSW 6.4 km/h 20.9 km/h 88 % 0.0 mm 0 W/m2
22:35 11.7 °C 9.7 °C 1013.1 hPa SW 6.4 km/h 17.7 km/h 88 % 0.0 mm 0 W/m2
22:40 11.7 °C 9.9 °C 1013.1 hPa SW 4.8 km/h 16.1 km/h 89 % 0.0 mm 0 W/m2
22:45 11.7 °C 9.9 °C 1012.8 hPa SW 4.8 km/h 22.5 km/h 89 % 0.0 mm 0 W/m2
22:50 11.6 °C 10.0 °C 1012.8 hPa WSW 6.4 km/h 22.5 km/h 90 % 0.0 mm 0 W/m2
22:55 11.5 °C 10.1 °C 1012.8 hPa WSW 4.8 km/h 22.5 km/h 91 % 0.0 mm 0 W/m2
23:00 11.5 °C 10.1 °C 1013.1 hPa WSW 8.0 km/h 16.1 km/h 91 % 0.0 mm 0 W/m2
23:05 11.5 °C 10.1 °C 1012.8 hPa SW 4.8 km/h 20.9 km/h 91 % 0.0 mm 0 W/m2
23:10 11.4 °C 10.0 °C 1012.8 hPa WSW 9.7 km/h 20.9 km/h 91 % 0.0 mm 0 W/m2
23:15 11.4 °C 10.1 °C 1013.1 hPa WNW 4.8 km/h 20.9 km/h 92 % 0.0 mm 0 W/m2
23:20 11.4 °C 10.0 °C 1012.8 hPa WSW 12.9 km/h 24.1 km/h 91 % 0.0 mm 0 W/m2
23:25 11.3 °C 9.9 °C 1012.8 hPa West 9.7 km/h 24.1 km/h 91 % 0.0 mm 0 W/m2
23:30 11.3 °C 10.0 °C 1013.1 hPa West 14.5 km/h 25.7 km/h 92 % 0.0 mm 0 W/m2
23:35 11.3 °C 9.9 °C 1012.8 hPa WSW 11.3 km/h 25.7 km/h 91 % 0.0 mm 0 W/m2
23:40 11.3 °C 9.9 °C 1012.8 hPa WSW 14.5 km/h 22.5 km/h 91 % 0.0 mm 0 W/m2
23:45 11.3 °C 9.9 °C 1012.8 hPa WSW 1.6 km/h 24.1 km/h 91 % 0.0 mm 0 W/m2
23:50 11.3 °C 9.9 °C 1012.8 hPa SW 4.8 km/h 24.1 km/h 91 % 0.0 mm 0 W/m2
23:55 11.4 °C 10.0 °C 1012.8 hPa South 8.0 km/h 24.1 km/h 91 % 0.0 mm 0 W/m2
Avec l'autorisation de Weather Underground - 1.75 mb